WetterOnline ( https://www.wetteronline.de )

Wetter aktuell Müssen

Aktuelles Wetter: Boizenburg (46m)

6-stündlich | Neueste Meldungen
Ortszeit Temperatur Wetter
So, 05.02. 7:00 -2.1° C bedeckt
So, 05.02. 1:00 -1.6° C leicht bewölkt
Sa, 04.02. 19:00 1.0° C bedeckt
Sa, 04.02. 13:00 3.4° C leicht bewölkt
Sa, 04.02. 7:00 0.6° C wolkig
Sa, 04.02. 1:00 3.0° C bewölkt
Fr, 03.02. 19:00 5.9° C leichter Regen
Fr, 03.02. 13:00 7.7° C bewölkt
Ortszeit Temperatur Wetter
So, 05.02. 10:30 -1.1° C bewölkt
So, 05.02. 10:20 -1.1° C bewölkt
So, 05.02. 10:10 -1.2° C bedeckt
So, 05.02. 10:00 -1.3° C wolkig
So, 05.02. 9:50 -1.3° C wolkig
So, 05.02. 9:40 -1.4° C bedeckt
So, 05.02. 9:30 -1.5° C bewölkt
So, 05.02. 9:00 -1.6° C bedeckt
So, 05.02. 8:30 -1.7° C bedeckt
So, 05.02. 8:00 -2.0° C bedeckt
So, 05.02. 7:30 -2.1° C bewölkt
Ortszeit Relative Feuchte Sichtweite
So, 05.02. 7:00 84% 65 km
So, 05.02. 1:00 85% 55 km
Sa, 04.02. 19:00 77% >70 km
Sa, 04.02. 13:00 71% 60 km
Sa, 04.02. 7:00 90% 60 km
Sa, 04.02. 1:00 85% >70 km
Fr, 03.02. 19:00 88% 9 km
Fr, 03.02. 13:00 72% 19 km
Ortszeit Relative Feuchte Sichtweite
So, 05.02. 10:30 81% 55 km
So, 05.02. 10:20 81% -
So, 05.02. 10:10 81% -
So, 05.02. 10:00 82% 60 km
So, 05.02. 9:50 82% -
So, 05.02. 9:40 82% -
So, 05.02. 9:30 82% 60 km
So, 05.02. 9:00 82% 65 km
So, 05.02. 8:30 82% 60 km
So, 05.02. 8:00 83% 55 km
So, 05.02. 7:30 84% 65 km
Ortszeit Niederschlagsmenge Niederschlagsart
So, 05.02. 7:00 0.1 l/m2 in 12 Std. -
So, 05.02. 1:00 0.1 l/m2 in 6 Std. Niederschlag
Sa, 04.02. 19:00 0.0 l/m2 in 12 Std. -
Sa, 04.02. 13:00 0.0 l/m2 in 6 Std. -
Sa, 04.02. 7:00 0.8 l/m2 in 12 Std. Regen
Sa, 04.02. 1:00 0.5 l/m2 in 6 Std. Regen
Fr, 03.02. 19:00 5 l/m2 in 12 Std. Regen
Fr, 03.02. 13:00 5 l/m2 in 6 Std. Regen
Ortszeit Niederschlagsmenge Niederschlagsart
So, 05.02. 10:30 0.0 l/m2 in 30 Min -
So, 05.02. 10:20 keine Meldung -
So, 05.02. 10:10 keine Meldung -
So, 05.02. 10:00 0.0 l/m2 in 1 Std. -
So, 05.02. 9:50 keine Meldung -
So, 05.02. 9:40 keine Meldung -
So, 05.02. 9:30 0.0 l/m2 in 30 Min -
So, 05.02. 9:00 0.0 l/m2 in 1 Std. -
So, 05.02. 8:30 0.0 l/m2 in 30 Min -
So, 05.02. 8:00 0.0 l/m2 in 1 Std. -
So, 05.02. 7:30 0.0 l/m2 in 30 Min -
Ortszeit Stärke Spitze Richtung
km/h Bft. km/h Grad Sektor
So, 05.02. 7:00 11 2 29 120° SO
So, 05.02. 1:00 14 3 25 110° O
Sa, 04.02. 19:00 7 2 14 50° NO
Sa, 04.02. 13:00 6 1 15 40° NO
Sa, 04.02. 7:00 6 1 24 350° N
Sa, 04.02. 1:00 14 3 58 340° N
Fr, 03.02. 19:00 25 4 68 290° W
Fr, 03.02. 13:00 29 5 79 290° W
Ortszeit Stärke Spitze Richtung
km/h Bft. km/h Grad Sektor
So, 05.02. 10:30 13 3 19 100° O
So, 05.02. 10:20 13 3 - 100° O
So, 05.02. 10:10 13 3 - 110° O
So, 05.02. 10:00 13 3 26 130° SO
So, 05.02. 9:50 13 3 - 130° SO
So, 05.02. 9:40 13 3 - 130° SO
So, 05.02. 9:30 11 2 25 140° SO
So, 05.02. 9:00 18 3 25 130° SO
So, 05.02. 8:30 17 3 24 130° SO
So, 05.02. 8:00 15 3 22 120° SO
So, 05.02. 7:30 13 3 19 120° SO
Ortszeit Untergrenze Bedeckung Gattung
total tief tief mittel hoch
So, 05.02. 7:00 3000 m 8/8 8/8 - - -
So, 05.02. 1:00 10500 m 4/8 0/8 - - -
Sa, 04.02. 19:00 4500 m 8/8 8/8 - - -
Sa, 04.02. 13:00 630 m 2/8 2/8 - - -
Sa, 04.02. 7:00 900 m 5/8 4/8 - - -
Sa, 04.02. 1:00 480 m 7/8 7/8 - - -
Fr, 03.02. 19:00 450 m 7/8 7/8 - - -
Fr, 03.02. 13:00 870 m 7/8 7/8 - - -
Ortszeit Bedeckungsgrad in Achtel und Wolkenuntergrenze
So, 05.02. 10:30 7(2700m) 8(3900m) 8(6600m)
So, 05.02. 10:20 7(2700m) 8(3900m) 8(6600m)
So, 05.02. 10:10 8
So, 05.02. 10:00 1(960m) 8(3900m) 8(6000m)
So, 05.02. 9:50 1(960m) 8(3900m) 8(6000m)
So, 05.02. 9:40 8
So, 05.02. 9:30 7(2400m) 7(3000m) 8(3600m)
So, 05.02. 9:00 8(2100m)
So, 05.02. 8:30 8(2100m)
So, 05.02. 8:00 8(2400m) 8(4800m) 8(6000m)
So, 05.02. 7:30 6(2700m) 8(6900m) 8(7800m)
Ortszeit Luftdruck NN (hPa) Tendenz (hPa in 3 Std.)
So, 05.02. 7:00 1036 - 1,3
So, 05.02. 1:00 1040 - 0,2
Sa, 04.02. 19:00 1040 + 0,6
Sa, 04.02. 13:00 1038 + 1,1
Sa, 04.02. 7:00 1035 + 3,3
Sa, 04.02. 1:00 1027 + 5,6
Fr, 03.02. 19:00 1017 + 2,1
Fr, 03.02. 13:00 1014 + 1,7
Ortszeit Luftdruck NN (hPa) Tendenz (hPa in 3 Std.)
So, 05.02. 10:30 1036 + 0,2
So, 05.02. 10:20 1036 keine Meldung
So, 05.02. 10:10 1036 keine Meldung
So, 05.02. 10:00 1036 - 0,3
So, 05.02. 9:50 1036 keine Meldung
So, 05.02. 9:40 1036 keine Meldung
So, 05.02. 9:30 1036 - 0,4
So, 05.02. 9:00 1036 - 1,3
So, 05.02. 8:30 1036 - 1,6
So, 05.02. 8:00 1036 - 2,0
So, 05.02. 7:30 1036 - 1,6
Ortszeit Schneehöhe (cm)
So, 05.02. 7:00 0
So, 05.02. 1:00 0
Sa, 04.02. 19:00 0
Sa, 04.02. 13:00 0
Sa, 04.02. 7:00 0
Sa, 04.02. 1:00 0
Fr, 03.02. 19:00 0
Fr, 03.02. 13:00 0
Ortszeit Schneehöhe (cm)
So, 05.02. 10:30 0
So, 05.02. 10:20 0
So, 05.02. 10:10 -
So, 05.02. 10:00 0
So, 05.02. 9:50 0
So, 05.02. 9:40 0
So, 05.02. 9:30 0
So, 05.02. 9:00 0
So, 05.02. 8:30 0
So, 05.02. 8:00 0
So, 05.02. 7:30 0
Link zu dieser Seite / Seite empfehlen

Das Wetter in ...